Terminal Aerodrome Forecast
Issued by NWS

Home | Current Version | Previous Version | Text Only | Print | Product List | Glossary On
Versions: 1 2 3 4 5 6 7 8 9 10 11 12 13 14
000
FTUS46 KPDT 191126 CCA
TAFBDN
TAF COR
KBDN 191126Z 1912/2012 20011KT P6SM SCT200
     FM191700 21016KT P6SM BKN090
     FM192000 22020G30KT P6SM -RA OVC080
     FM200300 26015KT P6SM -RA OVC035=

USA.gov is the U.S. government's official web portal to all federal, state and local government web resources and services.